Time;durP1;ratioP1;P1;durP2;ratioP2;P2;SDS_P1;SDS_P2;PMS_P1;PMS_P2;Temp;Humidity;BMP_temperature;BMP_pressure;BME280_temperature;BME280_humidity;BME280_pressure;Samples;Min_cycle;Max_cycle;Signal;HPM_P1;HPM_P2
2021/04/09 00:00:16;;;;;;;8.05;5.15;;;1.10;64.00;;;-0.32;47.45;95506.41;5018109;28;20551;-89
2021/04/09 00:02:43;;;;;;;6.18;4.90;;;1.00;64.20;;;-0.39;47.77;95510.34;5026626;28;20271;-86
2021/04/09 00:05:12;;;;;;;6.90;4.53;;;0.90;64.10;;;-0.38;47.67;95509.44;5027609;28;20199;-89
2021/04/09 00:07:39;;;;;;;9.07;5.57;;;0.90;64.30;;;-0.41;47.76;95499.34;5017372;28;20267;-88
2021/04/09 00:44:25;;;;;;;9.02;5.35;;;0.60;65.20;;;-0.89;48.07;95500.94;5055224;28;20755;-87
2021/04/09 00:46:51;;;;;;;9.77;6.47;;;0.50;64.40;;;-0.92;48.56;95488.28;5054155;28;20225;-89
2021/04/09 00:49:18;;;;;;;8.90;6.18;;;0.50;64.70;;;-0.87;48.58;95481.03;5020479;28;20202;-88
2021/04/09 00:51:45;;;;;;;10.55;7.45;;;0.50;64.80;;;-0.78;48.97;95492.47;5037118;28;20274;-88
2021/04/09 00:54:12;;;;;;;10.18;7.40;;;0.50;65.10;;;-0.73;49.05;95484.41;5036911;28;20286;-89
2021/04/09 00:56:40;;;;;;;10.30;7.70;;;0.50;65.20;;;-0.68;48.98;95482.34;5036754;28;20242;-89
2021/04/09 00:59:07;;;;;;;9.52;7.88;;;0.50;65.20;;;-0.64;48.95;95488.91;5053523;28;20281;-89
2021/04/09 01:01:34;;;;;;;8.55;6.90;;;0.50;65.20;;;-0.62;48.95;95483.66;5036039;28;20224;-89
2021/04/09 01:04:01;;;;;;;9.20;7.20;;;0.50;65.30;;;-0.59;48.75;95483.44;5047865;28;20207;-88
2021/04/09 01:06:27;;;;;;;9.18;6.82;;;0.50;65.20;;;-0.60;48.70;95476.63;5053323;28;20584;-89
2021/04/09 01:08:55;;;;;;;9.30;6.97;;;0.60;65.30;;;-0.61;48.61;95472.41;5033055;28;20671;-88
2021/04/09 01:11:22;;;;;;;13.45;6.97;;;0.60;65.30;;;-0.68;48.57;95470.28;5016748;28;20193;-89
2021/04/09 01:13:48;;;;;;;8.23;6.70;;;0.60;65.30;;;-0.66;48.63;95478.72;5041584;28;20205;-88
2021/04/09 01:16:58;;;;;;;10.15;6.95;;;0.60;65.30;;;-0.72;48.99;95474.00;5045365;28;20220;-89
2021/04/09 01:19:31;;;;;;;9.70;7.03;;;0.50;66.00;;;-0.76;48.69;95464.84;5019012;28;20200;-88
2021/04/09 01:22:02;;;;;;;10.65;7.18;;;0.60;65.70;;;-0.79;48.81;95459.91;5036454;28;20222;-89
2021/04/09 01:25:08;;;;;;;11.55;7.95;;;0.50;65.40;;;-0.83;48.72;95467.03;5036606;28;20204;-89
2021/04/09 01:28:04;;;;;;;13.23;8.18;;;0.50;66.10;;;-0.92;48.82;95459.94;5035430;28;20219;-88
2021/04/09 01:31:24;;;;;;;14.88;7.93;;;0.50;66.10;;;-0.93;48.91;95465.22;5034652;28;20662;-88
2021/04/09 01:33:55;;;;;;;12.82;7.15;;;0.40;66.00;;;-0.98;48.72;95462.94;5033250;28;20225;-88
2021/04/09 01:36:48;;;;;;;12.20;6.78;;;0.40;65.50;;;-1.01;48.94;95461.41;5032736;28;20255;-88
2021/04/09 01:39:38;;;;;;;10.43;6.97;;;0.40;65.50;;;-1.04;48.90;95455.66;5023593;28;20197;-89
2021/04/09 01:42:10;;;;;;;10.68;6.45;;;0.30;66.10;;;-1.04;48.94;95453.94;5017317;28;20282;-88
2021/04/09 01:44:43;;;;;;;9.50;7.07;;;0.30;65.40;;;-1.12;49.02;95445.91;5038970;28;20208;-88
2021/04/09 01:47:12;;;;;;;8.23;6.88;;;0.20;65.40;;;-1.10;48.94;95453.50;5034108;28;20803;-89
2021/04/09 01:49:42;;;;;;;9.60;6.55;;;0.30;65.50;;;-1.11;48.95;95454.44;5051359;28;20291;-89
2021/04/09 01:52:11;;;;;;;9.88;6.95;;;0.20;65.40;;;-1.20;48.97;95441.28;5018827;28;20240;-89
2021/04/09 01:54:40;;;;;;;11.80;7.35;;;0.20;65.60;;;-1.17;48.82;95446.22;5017656;28;20476;-88
2021/04/09 01:57:09;;;;;;;9.90;7.25;;;0.20;65.60;;;-1.20;49.04;95435.31;5031113;28;20220;-89
2021/04/09 01:59:39;;;;;;;10.48;6.90;;;0.10;65.60;;;-1.21;49.17;95444.78;5019633;28;20205;-88
2021/04/09 02:02:08;;;;;;;9.35;6.90;;;0.10;65.70;;;-1.24;49.13;95439.03;5031270;28;20291;-88
2021/04/09 02:04:37;;;;;;;8.90;6.85;;;0.10;65.60;;;-1.26;49.05;95433.16;5039525;28;20208;-89
2021/04/09 02:07:07;;;;;;;8.50;6.30;;;0.10;65.60;;;-1.27;49.21;95436.66;5052554;28;20704;-88
2021/04/09 02:09:35;;;;;;;9.80;6.95;;;0.10;65.80;;;-1.28;49.27;95430.72;5051753;28;20665;-88
2021/04/09 02:12:03;;;;;;;9.45;7.13;;;0.00;65.70;;;-1.29;49.60;95432.44;5052310;28;20705;-89
2021/04/09 02:14:32;;;;;;;8.30;6.55;;;0.00;65.60;;;-1.30;49.13;95427.41;5069276;28;20241;-89
2021/04/09 02:17:00;;;;;;;9.43;6.28;;;0.00;65.70;;;-1.36;49.19;95422.69;5037762;28;20223;-89
2021/04/09 02:19:27;;;;;;;10.80;7.45;;;0.00;65.70;;;-1.34;49.95;95416.50;5030006;28;20211;-89
2021/04/09 02:21:54;;;;;;;10.32;7.00;;;-0.10;65.70;;;-1.33;49.23;95418.16;5016181;28;20223;-89
2021/04/09 02:24:20;;;;;;;10.98;7.00;;;-0.10;65.80;;;-1.38;49.67;95417.66;5035458;28;20201;-89
2021/04/09 02:26:47;;;;;;;8.98;6.82;;;-0.10;65.80;;;-1.36;49.12;95422.69;5039668;28;20227;-88
2021/04/09 02:29:17;;;;;;;11.02;7.13;;;-0.10;65.90;;;-1.39;49.62;95418.56;5051508;28;20208;-87
2021/04/09 02:31:44;;;;;;;12.93;7.60;;;-0.10;65.90;;;-1.38;49.68;95422.81;5036251;28;20218;-88
2021/04/09 02:34:11;;;;;;;10.55;7.35;;;-0.10;66.00;;;-1.37;50.03;95415.88;5037922;28;20204;-88
2021/04/09 02:36:38;;;;;;;9.82;7.22;;;-0.10;66.10;;;-1.38;49.63;95415.09;5038446;28;20246;-88
2021/04/09 02:39:15;;;;;;;11.40;7.18;;;-0.10;66.10;;;-1.39;49.66;95413.44;5048860;28;20222;-88
2021/04/09 02:41:47;;;;;;;10.68;7.32;;;-0.10;66.50;;;-1.48;49.78;95399.47;5060475;28;20230;-89
2021/04/09 02:44:16;;;;;;;9.25;7.30;;;-0.10;66.30;;;-1.42;49.62;95413.63;5029283;28;20263;-88
2021/04/09 02:46:52;;;;;;;10.98;7.53;;;-0.10;66.10;;;-1.43;49.71;95409.41;5054629;28;20232;-87
2021/04/09 02:49:38;;;;;;;9.38;7.10;;;-0.10;66.50;;;-1.49;49.71;95397.81;5025976;28;20291;-88
2021/04/09 02:52:14;;;;;;;14.98;7.97;;;-0.20;66.90;;;-1.47;49.69;95402.84;5052822;28;20434;-89
2021/04/09 02:54:43;;;;;;;16.70;8.70;;;-0.10;66.20;;;-1.49;49.67;95399.53;5018747;28;20669;-88
2021/04/09 02:57:12;;;;;;;12.77;8.43;;;-0.20;67.00;;;-1.50;49.69;95395.31;5036172;28;20234;-88
2021/04/09 02:59:40;;;;;;;15.52;9.43;;;-0.20;66.10;;;-1.53;49.75;95393.78;5036990;28;20511;-87
2021/04/09 03:02:06;;;;;;;11.88;7.93;;;-0.20;66.20;;;-1.53;49.38;95393.78;5034559;28;20663;-88
2021/04/09 03:04:34;;;;;;;15.27;8.30;;;-0.20;66.10;;;-1.56;49.66;95388.88;5018912;28;20201;-88
2021/04/09 03:07:01;;;;;;;10.27;7.85;;;-0.20;66.20;;;-1.56;49.48;95390.59;5038189;28;20223;-89
2021/04/09 03:09:30;;;;;;;10.77;7.45;;;-0.30;66.20;;;-1.58;50.15;95387.31;5029368;28;20196;-89
2021/04/09 03:11:57;;;;;;;11.20;7.65;;;-0.30;66.40;;;-1.66;50.09;95378.38;5019350;28;20697;-89
2021/04/09 03:14:24;;;;;;;13.57;8.57;;;-0.30;66.30;;;-1.63;49.97;95390.22;5051926;28;20189;-89
2021/04/09 03:17:02;;;;;;;11.05;7.95;;;-0.30;66.40;;;-1.63;49.81;95387.63;5019424;28;20224;-89
2021/04/09 03:19:29;;;;;;;10.55;7.80;;;-0.30;66.80;;;-1.71;50.06;95372.75;5035690;28;20275;-89
2021/04/09 03:21:56;;;;;;;11.82;7.63;;;-0.30;66.40;;;-1.66;49.97;95391.25;5035346;28;20283;-89
2021/04/09 03:24:23;;;;;;;10.38;7.45;;;-0.40;66.30;;;-1.70;50.08;95382.06;5035702;28;20193;-89
2021/04/09 03:26:50;;;;;;;12.93;8.43;;;-0.40;66.40;;;-1.78;49.90;95368.94;5035262;28;20216;-88
2021/04/09 03:29:16;;;;;;;11.95;8.50;;;-0.40;66.40;;;-1.71;50.48;95379.63;5035808;28;20250;-88
2021/04/09 03:31:43;;;;;;;13.18;8.02;;;-0.40;66.50;;;-1.75;50.47;95373.84;5050099;28;20209;-89
2021/04/09 03:34:10;;;;;;;12.85;8.30;;;-0.40;66.60;;;-1.71;50.35;95374.47;5019253;28;20218;-88
2021/04/09 03:36:37;;;;;;;10.85;8.18;;;-0.40;66.70;;;-1.71;50.55;95375.31;5023807;28;20299;-89
2021/04/09 03:39:03;;;;;;;11.52;8.00;;;-0.40;66.70;;;-1.71;50.48;95370.16;5018875;28;20197;-90
2021/04/09 03:41:30;;;;;;;11.32;7.93;;;-0.40;66.80;;;-1.72;50.76;95360.81;5002466;28;20286;-89
2021/04/09 03:43:57;;;;;;;11.35;7.20;;;-0.50;66.70;;;-1.72;50.40;95365.09;5019087;28;20201;-89
2021/04/09 03:46:24;;;;;;;11.57;7.57;;;-0.50;66.70;;;-1.74;50.19;95367.00;5018777;28;20232;-89
2021/04/09 03:48:51;;;;;;;10.40;6.82;;;-0.50;66.70;;;-1.77;50.58;95352.56;5018441;28;20204;-89
2021/04/09 03:51:17;;;;;;;12.65;7.32;;;-0.50;66.70;;;-1.84;50.56;95344.47;5018797;28;20673;-89
2021/04/09 03:53:44;;;;;;;13.68;8.15;;;-0.50;66.80;;;-1.78;50.80;95359.47;5002213;28;20204;-89
2021/04/09 03:56:11;;;;;;;10.98;7.45;;;-0.50;66.80;;;-1.80;50.51;95356.16;5018745;28;20220;-89
2021/04/09 03:58:37;;;;;;;11.13;7.75;;;-0.50;66.80;;;-1.82;50.49;95352.06;5001980;28;20254;-86
2021/04/09 04:01:04;;;;;;;12.35;8.30;;;-0.50;66.80;;;-1.83;50.53;95356.41;5030199;28;20239;-87
2021/04/09 04:03:31;;;;;;;12.43;8.02;;;-0.50;66.90;;;-1.82;50.62;95357.19;5018292;28;20205;-88
2021/04/09 04:05:57;;;;;;;11.75;7.95;;;-0.60;66.90;;;-1.86;50.59;95342.94;5034724;28;20238;-87
2021/04/09 04:08:25;;;;;;;10.55;7.85;;;-0.60;67.00;;;-1.84;50.62;95349.59;5017958;28;20224;-86
2021/04/09 04:10:51;;;;;;;10.45;6.93;;;-0.60;67.00;;;-1.86;50.72;95355.78;5002396;28;20197;-91
2021/04/09 04:13:21;;;;;;;11.25;7.38;;;-0.60;67.00;;;-1.85;50.78;95360.81;5034790;28;20228;-90
2021/04/09 04:15:50;;;;;;;10.48;8.30;;;-0.60;67.00;;;-1.85;50.96;95357.44;5019447;28;20197;-90
2021/04/09 04:18:17;;;;;;;9.68;7.28;;;-0.60;67.10;;;-1.87;50.96;95343.84;5034577;28;20225;-90
2021/04/09 04:20:44;;;;;;;11.02;8.18;;;-0.60;67.20;;;-1.85;51.14;95349.72;5001860;28;20201;-90
2021/04/09 04:23:11;;;;;;;9.90;7.13;;;-0.60;67.30;;;-1.83;51.01;95352.97;5001741;28;20252;-89
2021/04/09 04:25:38;;;;;;;10.75;7.38;;;-0.60;67.30;;;-1.82;51.07;95341.78;5034564;28;20193;-90
2021/04/09 04:28:05;;;;;;;8.45;6.75;;;-0.60;67.30;;;-1.81;51.08;95338.28;5017487;28;20275;-89
2021/04/09 04:30:31;;;;;;;11.35;7.93;;;-0.60;67.50;;;-1.82;51.29;95336.63;5034146;28;20211;-91
2021/04/09 04:32:58;;;;;;;11.90;8.13;;;-0.60;67.40;;;-1.80;51.13;95340.75;5017661;28;20244;-89
2021/04/09 04:35:25;;;;;;;11.63;8.80;;;-0.60;67.50;;;-1.79;51.37;95336.44;5036985;28;20212;-89
2021/04/09 04:37:52;;;;;;;12.88;8.55;;;-0.60;67.50;;;-1.74;51.42;95339.50;5053990;28;20232;-89
2021/04/09 04:40:19;;;;;;;13.20;8.57;;;-0.60;67.60;;;-1.72;51.26;95335.09;5037429;28;20223;-90
2021/04/09 04:42:46;;;;;;;12.02;8.35;;;-0.50;67.70;;;-1.71;51.35;95333.31;5053273;28;20212;-89
2021/04/09 04:45:14;;;;;;;11.88;8.35;;;-0.50;67.80;;;-1.64;51.44;95340.50;5037295;28;20220;-89
2021/04/09 04:47:40;;;;;;;14.25;8.48;;;-0.50;67.80;;;-1.66;51.52;95324.38;5052589;28;20643;-91
2021/04/09 04:50:08;;;;;;;12.30;8.23;;;-0.40;67.90;;;-1.58;51.61;95330.75;5018857;28;20197;-91
2021/04/09 04:52:35;;;;;;;13.40;9.00;;;-0.40;68.00;;;-1.47;51.61;95339.34;5036698;28;20656;-89
2021/04/09 04:55:02;;;;;;;12.57;9.00;;;-0.40;68.00;;;-1.47;51.19;95338.53;5037219;28;20648;-89
2021/04/09 04:57:29;;;;;;;12.77;8.93;;;-0.30;68.20;;;-1.39;51.64;95345.69;5036870;28;20231;-87
2021/04/09 04:59:56;;;;;;;12.90;8.30;;;-0.30;68.20;;;-1.31;51.45;95341.69;5036618;28;20295;-87
2021/04/09 05:02:23;;;;;;;10.43;7.85;;;-0.30;68.20;;;-1.26;51.72;95337.94;5037199;28;20259;-87
2021/04/09 05:04:50;;;;;;;12.25;8.73;;;-0.20;68.20;;;-1.21;51.50;95341.00;5036856;28;20227;-88
2021/04/09 05:07:18;;;;;;;13.65;8.98;;;-0.20;68.30;;;-1.17;51.62;95338.13;5053892;28;20216;-88
2021/04/09 05:09:45;;;;;;;12.77;8.40;;;0.00;68.50;;;-1.08;51.71;95338.41;5045203;28;20200;-87
2021/04/09 05:12:12;;;;;;;12.00;8.13;;;-0.10;68.40;;;-1.02;51.73;95346.50;5016854;28;20275;-86
2021/04/09 05:14:38;;;;;;;13.20;8.25;;;0.00;68.50;;;-0.93;51.91;95342.44;5033400;28;20234;-87
2021/04/09 05:17:06;;;;;;;11.25;8.07;;;0.10;68.80;;;-0.85;51.49;95336.75;5033189;28;20327;-86
2021/04/09 05:19:33;;;;;;;10.55;7.93;;;0.10;68.60;;;-0.77;51.55;95341.31;5033631;28;20193;-86
2021/04/09 05:22:00;;;;;;;11.93;8.82;;;0.20;68.60;;;-0.74;51.56;95328.25;5016919;28;20209;-86
2021/04/09 05:24:26;;;;;;;15.18;8.80;;;0.20;68.60;;;-0.66;51.52;95331.91;5033194;28;20205;-87
2021/04/09 05:26:53;;;;;;;12.13;8.35;;;0.30;68.60;;;-0.58;51.49;95330.50;5016335;28;20213;-86
2021/04/09 05:29:20;;;;;;;12.60;9.10;;;0.40;68.60;;;-0.49;51.75;95332.38;5016725;28;20207;-87
2021/04/09 05:31:47;;;;;;;13.15;8.90;;;0.40;68.60;;;-0.41;51.65;95331.84;5004205;28;20747;-85
2021/04/09 05:34:14;;;;;;;12.57;9.02;;;0.50;68.80;;;-0.33;51.44;95327.75;5054183;28;20905;-86
2021/04/09 05:36:41;;;;;;;15.98;8.98;;;0.50;68.60;;;-0.25;51.41;95327.16;5016615;28;20246;-86
2021/04/09 05:39:08;;;;;;;14.23;9.35;;;0.60;68.70;;;-0.17;51.50;95322.28;5035378;28;20653;-86
2021/04/09 05:41:34;;;;;;;12.02;8.10;;;0.70;68.70;;;-0.12;51.49;95318.50;5026541;28;20227;-87
2021/04/09 05:44:01;;;;;;;11.13;8.85;;;0.70;68.70;;;-0.01;51.26;95310.81;5025680;28;20200;-87
2021/04/09 05:46:28;;;;;;;13.77;9.20;;;0.80;68.70;;;0.08;51.52;95309.28;5030946;28;20278;-87
2021/04/09 05:48:55;;;;;;;13.23;9.50;;;0.90;68.80;;;0.13;51.35;95307.16;4999525;28;20211;-85
2021/04/09 05:51:23;;;;;;;13.60;9.40;;;1.00;68.70;;;0.23;51.15;95307.28;5050590;28;20207;-87
2021/04/09 05:53:49;;;;;;;14.13;10.10;;;1.00;68.60;;;0.31;51.46;95307.50;5050475;28;20204;-87
2021/04/09 05:56:16;;;;;;;13.43;10.07;;;1.10;68.60;;;0.38;51.47;95300.09;5065615;28;20278;-86
2021/04/09 05:58:43;;;;;;;14.30;9.57;;;1.20;68.80;;;0.47;51.33;95305.34;5051093;28;20207;-86
2021/04/09 06:01:09;;;;;;;14.32;10.57;;;1.30;68.70;;;0.57;51.16;95307.22;5041799;28;20212;-86
2021/04/09 06:03:36;;;;;;;13.43;9.90;;;1.30;68.70;;;0.64;51.43;95303.22;5031785;28;20209;-85
2021/04/09 06:06:03;;;;;;;13.38;9.88;;;1.40;68.70;;;0.73;51.00;95304.25;5035767;28;20291;-87
2021/04/09 06:08:30;;;;;;;19.35;13.18;;;1.50;68.80;;;0.77;51.53;95293.56;5050897;28;20211;-86
2021/04/09 06:10:57;;;;;;;17.33;13.93;;;1.60;68.90;;;0.92;51.46;95304.44;5034143;28;20204;-87
2021/04/09 06:13:24;;;;;;;17.02;12.05;;;1.60;68.80;;;1.01;51.39;95305.47;5033541;28;20606;-87
2021/04/09 06:15:50;;;;;;;13.73;11.02;;;1.70;68.80;;;1.09;51.24;95302.28;5032685;28;20208;-86
2021/04/09 06:18:17;;;;;;;16.50;10.82;;;1.80;68.90;;;1.17;51.37;95293.91;5049768;28;20259;-87
2021/04/09 06:20:44;;;;;;;13.57;10.40;;;1.90;68.90;;;1.25;51.37;95294.91;5050556;28;20262;-87
2021/04/09 06:23:11;;;;;;;13.57;9.23;;;2.00;69.80;;;1.36;51.40;95298.41;5035136;28;20318;-87
2021/04/09 06:25:38;;;;;;;13.93;9.75;;;2.00;68.90;;;1.43;51.29;95299.53;5016881;28;20220;-87
2021/04/09 06:28:05;;;;;;;11.18;9.05;;;2.10;69.00;;;1.55;51.53;95295.94;5030132;28;20227;-87
2021/04/09 06:30:32;;;;;;;12.57;9.15;;;2.20;69.10;;;1.68;51.86;95297.50;5023463;28;20288;-87
2021/04/09 06:32:59;;;;;;;12.52;9.77;;;2.30;69.10;;;1.77;51.43;95286.41;5040276;28;20223;-87
2021/04/09 06:35:26;;;;;;;13.25;9.07;;;2.40;69.10;;;1.87;51.62;95289.84;5042358;28;20625;-87
2021/04/09 06:37:52;;;;;;;14.73;10.20;;;2.50;69.10;;;2.00;51.47;95286.22;5033458;28;20239;-87
2021/04/09 06:40:21;;;;;;;13.13;9.38;;;2.60;69.10;;;2.12;51.21;95284.38;5051896;28;20226;-87
2021/04/09 06:42:56;;;;;;;13.90;8.98;;;2.70;69.20;;;2.23;51.56;95279.94;5022989;28;20252;-86
2021/04/09 06:45:27;;;;;;;13.75;9.43;;;2.80;69.50;;;2.36;51.48;95291.81;5034856;28;20222;-86
2021/04/09 06:47:55;;;;;;;16.40;10.18;;;2.90;69.20;;;2.45;51.23;95283.25;5048359;28;20223;-85
2021/04/09 06:50:23;;;;;;;14.52;9.88;;;3.00;69.30;;;2.57;51.32;95294.31;5017105;28;20204;-87
2021/04/09 06:52:50;;;;;;;14.32;9.80;;;3.10;69.30;;;2.69;51.36;95293.25;5039686;28;20335;-86
2021/04/09 06:55:20;;;;;;;11.75;9.13;;;3.20;69.30;;;2.78;51.73;95283.84;5035437;28;20238;-86
2021/04/09 06:57:47;;;;;;;12.98;9.43;;;3.30;69.20;;;2.94;51.41;95285.09;5051122;28;20235;-86
2021/04/09 07:00:16;;;;;;;15.60;8.95;;;3.40;69.10;;;3.08;51.54;95287.31;5035199;28;20211;-86
2021/04/09 07:02:44;;;;;;;12.23;8.85;;;3.50;69.10;;;3.19;51.30;95278.56;5040472;28;20228;-86
2021/04/09 07:05:12;;;;;;;13.43;8.98;;;3.70;69.00;;;3.31;51.26;95284.44;5035337;28;20250;-86
2021/04/09 07:07:39;;;;;;;12.38;8.68;;;3.80;69.00;;;3.46;51.39;95282.25;5038058;28;20224;-86
2021/04/09 07:10:08;;;;;;;11.77;8.88;;;3.90;69.00;;;3.56;51.19;95280.44;5050975;28;20231;-86
2021/04/09 07:12:36;;;;;;;11.68;8.60;;;4.00;68.80;;;3.69;51.15;95285.34;5053715;28;20228;-87
2021/04/09 07:15:16;;;;;;;10.73;8.40;;;4.10;68.90;;;3.78;51.20;95279.28;5034761;28;20216;-86
2021/04/09 07:17:48;;;;;;;11.43;8.93;;;4.20;68.80;;;3.94;50.84;95283.09;5017806;28;20319;-86
2021/04/09 07:20:17;;;;;;;11.98;8.50;;;4.40;68.90;;;4.05;51.10;95274.31;5018867;28;20200;-86
2021/04/09 07:23:05;;;;;;;12.95;9.13;;;4.50;68.90;;;4.16;50.69;95279.31;5019050;28;20305;-85
2021/04/09 07:25:48;;;;;;;13.63;8.77;;;4.60;68.70;;;4.27;50.93;95278.31;5032632;28;20196;-87
2021/04/09 07:28:22;;;;;;;15.90;8.70;;;4.80;68.80;;;4.36;50.68;95269.66;5053548;28;20660;-87
2021/04/09 07:30:56;;;;;;;14.23;9.40;;;4.90;68.80;;;4.48;51.06;95270.31;5053318;28;20196;-87
2021/04/09 07:33:26;;;;;;;11.98;8.55;;;4.90;68.70;;;4.62;50.69;95267.19;5051189;28;20255;-87
2021/04/09 07:36:02;;;;;;;11.77;8.02;;;5.00;68.70;;;4.73;50.95;95262.75;5052468;28;20195;-86
2021/04/09 07:38:33;;;;;;;9.68;7.90;;;5.10;68.80;;;4.88;50.81;95263.06;5051102;28;20208;-88
2021/04/09 07:41:04;;;;;;;10.80;8.07;;;5.30;68.80;;;5.06;50.78;95257.88;5034441;28;20219;-86
2021/04/09 07:43:34;;;;;;;21.45;9.35;;;5.40;68.80;;;5.24;50.76;95260.47;5052584;28;20216;-87
2021/04/09 07:46:05;;;;;;;10.68;7.97;;;5.50;68.80;;;5.40;50.54;95265.00;5034326;28;20220;-87
2021/04/09 07:48:36;;;;;;;10.55;7.60;;;5.60;68.80;;;5.56;50.42;95254.69;5051516;28;20208;-87
2021/04/09 07:51:08;;;;;;;9.80;7.22;;;5.80;68.90;;;5.71;50.25;95256.75;5035109;28;20568;-87
2021/04/09 07:53:41;;;;;;;9.35;7.15;;;5.90;68.60;;;5.84;50.22;95244.13;5036061;28;20250;-87
2021/04/09 07:56:17;;;;;;;10.60;7.07;;;6.10;68.60;;;5.99;49.72;95241.78;5037007;28;20300;-85
2021/04/09 07:58:56;;;;;;;8.77;6.68;;;6.30;68.50;;;6.13;49.75;95240.41;5038313;28;20212;-86
2021/04/09 08:01:26;;;;;;;8.90;6.93;;;6.40;68.40;;;6.27;49.95;95230.38;5022676;28;20227;-87
2021/04/09 08:03:56;;;;;;;9.50;6.70;;;6.50;68.40;;;6.39;49.84;95234.31;5053074;28;20634;-87
2021/04/09 08:06:34;;;;;;;9.50;6.53;;;6.60;68.30;;;6.51;49.53;95237.47;5055141;28;20212;-87
2021/04/09 08:09:02;;;;;;;9.43;6.30;;;6.70;68.10;;;6.62;49.38;95228.53;5054546;28;20199;-87
2021/04/09 08:11:37;;;;;;;6.53;5.75;;;6.80;68.00;;;6.75;49.32;95231.50;5070835;28;20234;-86
2021/04/09 08:14:12;;;;;;;8.50;5.75;;;7.00;67.80;;;6.86;49.14;95231.19;5054293;28;20192;-86
2021/04/09 08:16:47;;;;;;;8.25;5.93;;;7.10;67.80;;;6.98;49.20;95231.69;5037730;28;20250;-87
2021/04/09 08:19:17;;;;;;;8.52;6.35;;;7.20;67.80;;;7.09;48.96;95222.72;5054318;28;20287;-88
2021/04/09 08:21:54;;;;;;;18.63;6.60;;;7.30;67.70;;;7.25;48.87;95232.38;5037918;28;20254;-86
2021/04/09 08:24:28;;;;;;;8.25;6.35;;;7.40;67.80;;;7.37;49.04;95230.22;5054063;28;20204;-88
2021/04/09 08:26:55;;;;;;;7.68;6.07;;;7.60;67.90;;;7.53;48.90;95227.63;5053761;28;20241;-88
2021/04/09 08:29:24;;;;;;;8.65;6.13;;;7.70;68.00;;;7.63;48.84;95218.78;5053411;28;20216;-87
2021/04/09 08:31:51;;;;;;;8.02;5.68;;;7.80;67.70;;;7.82;47.98;95231.50;5052641;28;20227;-86
2021/04/09 08:34:20;;;;;;;12.88;5.43;;;7.90;67.30;;;7.93;47.95;95219.84;5038065;28;20220;-86
2021/04/09 08:36:49;;;;;;;7.85;5.55;;;8.10;68.10;;;8.04;47.79;95218.69;5015864;28;20239;-86
2021/04/09 08:39:36;;;;;;;7.55;5.22;;;8.20;66.90;;;8.16;48.00;95224.38;5020031;28;20258;-87
2021/04/09 08:42:03;;;;;;;7.32;5.38;;;8.30;67.00;;;8.26;47.66;95217.13;5037401;28;20407;-88
2021/04/09 08:44:30;;;;;;;7.05;5.70;;;8.40;66.90;;;8.34;47.22;95222.34;5037008;28;20208;-86
2021/04/09 08:46:58;;;;;;;10.38;5.97;;;8.50;66.60;;;8.41;47.08;95219.88;5036069;28;20255;-87
2021/04/09 08:49:28;;;;;;;7.50;5.50;;;8.60;66.40;;;8.47;46.93;95213.16;5053546;28;20247;-87
2021/04/09 08:52:00;;;;;;;9.32;5.20;;;8.70;66.20;;;8.61;47.05;95219.47;5053951;28;20243;-88
2021/04/09 08:54:30;;;;;;;6.32;4.95;;;8.80;66.20;;;8.71;46.71;95224.47;5037110;28;20227;-88
2021/04/09 08:57:03;;;;;;;9.35;5.60;;;8.90;66.10;;;8.82;46.72;95231.94;5052730;28;20219;-88
2021/04/09 08:59:48;;;;;;;7.28;5.18;;;9.00;66.00;;;8.91;46.92;95219.59;5018842;28;20200;-87
2021/04/09 09:02:24;;;;;;;7.80;5.07;;;9.00;65.80;;;9.01;46.60;95216.75;5053249;28;20686;-87
2021/04/09 09:05:04;;;;;;;6.22;4.93;;;9.20;66.00;;;9.13;46.72;95216.19;5018566;28;20208;-87
2021/04/09 09:07:43;;;;;;;7.50;5.20;;;9.30;66.00;;;9.26;46.47;95212.16;5033597;28;20224;-87
2021/04/09 09:10:21;;;;;;;6.82;5.25;;;9.40;65.90;;;9.39;46.57;95216.81;5050514;28;20695;-86
2021/04/09 09:15:46;;;;;;;6.60;4.82;;;9.60;65.60;;;9.64;45.78;95212.16;5046618;28;20207;-86
2021/04/09 09:18:22;;;;;;;6.93;4.68;;;9.70;64.90;;;9.72;45.63;95206.84;5031593;28;20256;-86
2021/04/09 09:21:15;;;;;;;7.50;5.38;;;9.80;65.00;;;9.83;45.65;95202.97;5032750;28;20291;-87
2021/04/09 09:24:28;;;;;;;6.32;4.68;;;9.90;64.80;;;9.94;45.73;95206.97;5052958;28;20361;-87
2021/04/09 09:27:09;;;;;;;6.82;5.03;;;10.00;63.90;;;10.05;45.19;95200.47;5017687;28;20253;-87
2021/04/09 09:29:46;;;;;;;14.48;5.40;;;10.20;63.60;;;10.20;45.17;95198.63;5047320;28;20208;-86
2021/04/09 09:32:13;;;;;;;6.68;5.10;;;10.30;63.60;;;10.33;44.97;95187.50;5031047;28;20681;-86
2021/04/09 09:34:41;;;;;;;7.38;4.70;;;10.40;63.90;;;10.49;45.22;95199.63;5049511;28;20214;-85
2021/04/09 09:37:20;;;;;;;7.25;5.50;;;10.50;64.00;;;10.61;44.06;95197.34;5029556;28;20802;-84
2021/04/09 09:39:49;;;;;;;6.13;4.78;;;10.60;63.40;;;10.73;44.36;95190.59;5029047;28;20208;-84
2021/04/09 09:42:26;;;;;;;7.72;5.03;;;10.70;63.40;;;10.82;44.44;95183.41;5029488;28;20640;-86
2021/04/09 09:44:58;;;;;;;6.95;4.75;;;10.80;62.90;;;10.96;44.07;95178.31;5046268;28;20208;-86
2021/04/09 09:47:32;;;;;;;6.43;5.10;;;10.90;63.10;;;11.10;44.26;95174.00;5031729;28;20224;-86
2021/04/09 09:50:05;;;;;;;6.97;4.60;;;11.10;63.40;;;11.27;44.33;95177.97;5015866;28;20666;-86
2021/04/09 09:52:55;;;;;;;7.15;4.88;;;11.20;63.30;;;11.42;44.12;95180.53;5058557;28;20220;-86
2021/04/09 09:55:38;;;;;;;7.30;5.00;;;11.30;63.10;;;11.57;43.92;95167.31;5047590;28;20192;-87
2021/04/09 09:58:22;;;;;;;5.85;4.57;;;11.50;63.30;;;11.74;43.87;95165.19;5014652;28;20490;-86
2021/04/09 10:01:04;;;;;;;10.02;4.72;;;11.60;62.80;;;11.91;43.64;95157.00;5023132;28;20203;-86
2021/04/09 10:03:37;;;;;;;5.43;4.68;;;11.80;62.80;;;12.11;43.53;95150.06;5030767;28;20196;-86
2021/04/09 10:06:13;;;;;;;5.45;4.50;;;11.90;63.80;;;12.29;43.58;95139.00;5014444;28;20269;-86
2021/04/09 10:08:59;;;;;;;5.50;3.83;;;12.10;63.10;;;12.50;43.38;95139.91;5031811;28;20211;-86
2021/04/09 10:11:25;;;;;;;7.88;5.07;;;12.40;63.00;;;12.63;43.08;95129.41;5015842;28;20216;-87
2021/04/09 10:13:54;;;;;;;6.93;4.68;;;12.50;62.90;;;12.85;42.06;95134.47;5032071;28;20204;-86
2021/04/09 10:16:23;;;;;;;5.60;4.20;;;12.60;62.30;;;13.06;42.34;95128.25;5032437;28;20191;-85
2021/04/09 10:18:57;;;;;;;5.72;4.07;;;12.80;62.40;;;13.26;42.16;95133.50;4999766;28;20386;-85
2021/04/09 10:21:28;;;;;;;4.60;3.85;;;12.90;62.10;;;13.45;41.85;95126.66;5000015;28;20293;-86
2021/04/09 10:24:12;;;;;;;6.35;4.28;;;13.10;62.10;;;13.66;41.29;95124.78;5032077;28;20677;-86
2021/04/09 10:26:42;;;;;;;6.60;4.95;;;13.30;61.20;;;13.85;41.11;95120.47;5032208;28;20748;-88
2021/04/09 10:29:25;;;;;;;5.93;3.92;;;13.50;61.50;;;14.04;41.38;95118.00;5032377;28;20204;-87
2021/04/09 10:31:55;;;;;;;4.70;4.13;;;13.70;61.60;;;14.20;40.32;95116.72;5032431;28;20596;-87
2021/04/09 10:34:25;;;;;;;6.10;4.18;;;13.80;61.30;;;14.34;39.85;95112.19;5028215;28;20287;-87
2021/04/09 10:36:53;;;;;;;4.97;4.30;;;13.90;60.90;;;14.50;40.40;95113.53;5032273;28;20219;-87
2021/04/09 10:39:23;;;;;;;5.93;3.75;;;14.20;61.00;;;14.60;40.02;95107.78;5031936;28;20196;-86
2021/04/09 10:41:52;;;;;;;9.63;3.70;;;14.30;61.00;;;14.71;38.66;95102.69;5015516;28;20212;-86
2021/04/09 10:44:33;;;;;;;5.03;3.50;;;14.40;60.00;;;14.73;34.94;95102.47;5015960;28;20200;-86
2021/04/09 10:47:06;;;;;;;5.43;3.50;;;14.50;56.60;;;14.65;33.82;95098.25;5018925;28;20256;-87
2021/04/09 10:49:57;;;;;;;5.35;3.20;;;14.60;56.20;;;14.66;34.95;95102.53;5037030;28;20204;-86
2021/04/09 10:52:30;;;;;;;3.75;3.00;;;14.60;55.70;;;14.63;34.90;95102.09;5036909;28;20211;-87
2021/04/09 10:55:03;;;;;;;3.65;2.90;;;14.70;55.80;;;14.69;35.12;95099.44;5039291;28;20188;-87
2021/04/09 10:57:35;;;;;;;4.18;2.95;;;14.70;54.90;;;14.71;35.68;95086.03;5040433;28;20223;-87
2021/04/09 11:00:06;;;;;;;3.20;2.60;;;14.70;55.70;;;14.78;36.28;95086.81;5035580;28;20282;-87
2021/04/09 11:02:38;;;;;;;5.32;3.08;;;14.80;56.00;;;14.85;34.68;95078.81;5019907;28;20248;-86
2021/04/09 11:05:07;;;;;;;3.63;2.80;;;14.80;54.70;;;14.90;35.35;95081.63;5055887;28;20199;-86
2021/04/09 11:07:46;;;;;;;3.45;2.45;;;14.90;55.80;;;15.00;36.45;95067.94;5038567;28;20211;-86
2021/04/09 11:10:33;;;;;;;3.03;2.47;;;15.00;57.00;;;15.21;37.01;95070.22;5041486;28;20219;-86
2021/04/09 11:13:00;;;;;;;3.65;2.67;;;15.00;57.60;;;15.37;35.50;95060.91;5055303;28;20219;-86